KCIC/CIC METAR and TAF weather

Enter ICAO airport designator
Station Type Date Time Source
KCIC METAR 2020/09/30 14:47 UTC NOAA

KCIC 301447Z VRB05KT 4SM FUHZ SKC 15/04 A3009


Station Type Date Time Source
KCIC Decoded METAR 2020/09/30 14:47 UTC NOAA

Chico Municipal , CA, United States (KCIC) 39-48N 121-51W
Sep 30, 2020 - 10:47 AM EDT / 2020.09.30 1447 UTC
Wind: Variable at 6 MPH (5 KT):0
Visibility: 4 mile(s):0
Sky conditions: clear
Weather: smoke, haze
Temperature: 59 F (15 C)
Dew Point: 39 F (4 C)
Relative Humidity: 47%
Pressure (altimeter): 30.09 in. Hg (1018 hPa)
ob: KCIC 301447Z VRB05KT 4SM FUHZ SKC 15/04 A3009
cycle: 15

Station Type Date Time Source
KCIC TAF UTC NOAA

Error!

Example: see airport list